Terminal Aerodrome Forecast
Issued by NWS

Home | Current Version | Previous Version | Text Only | Print | Product List | Glossary On
Versions: 1 2 3 4 5 6 7 8 9 10 11 12 13 14 15 16 17 18 19
000
FTUS42 KTBW 192300
TAFRSW
TAF
KRSW 192338Z 2000/2024 20005KT 6SM SHRA SCT025 BKN080
      TEMPO 2000/2003 2SM SHRA BKN020
     FM200600 15006KT P6SM VCSH BKN050 OVC080
     FM201200 20005KT P6SM VCSH BKN040 OVC090
     FM201800 24009KT P6SM VCSH BKN040=

USA.gov is the U.S. government's official web portal to all federal, state and local government web resources and services.